ESGJ Airport Information

Runway Information
Runway 01 Length 7228 ft width 148 ft
Elevation 733 ft Threshold 0 ft Heading 18
Runway 19 Length 7228 ft Width 148 ft
Elevation 739 ft Threshold 0 ft Heading 198
Runway 11 Length 1969 ft width 82 ft
Elevation 727 ft Threshold 0 ft Heading 114
Runway 29 Length 1969 ft Width 82 ft
Elevation 738 ft Threshold 0 ft Heading 294
Airport Frequencies
Type TWR Name TWR Frequency 118.25 MHZ
Airport Navaids
Type VOR-DME Name Jonkoping Frequency 115800 KHZ
Airport Weather Information & NOTAM
ADDS - METARS form results

(0704 UTC 18 September 2021)
Data provider http://aviationweather.gov/metar/data/
 
METAR text: ESGJ 180650Z AUTO 04006KT 9999 BKN045/// 09/07 Q1021
Conditions at: ESGJ (JONKOPING AIRPOR, SE) observed 0650 UTC 18 September 2021
Temperature: 9.0°C (48°F)
Dewpoint: 7.0°C (45°F) [RH = 87%]
Pressure (altimeter): 30.15 inches Hg (1021.0 mb)
Winds: from the NE (40 degrees) at 7 MPH (6 knots; 3.1 m/s)
Visibility: 6 or more miles (10+ km)
Ceiling: 4500 feet AGL
Clouds: broken clouds at 4500 feet AGL
Weather: no significant weather observed at this time

METAR text: ESGJ 180620Z AUTO 05007KT 9999 FEW017/// OVC043/// 09/07 Q1021
Conditions at: ESGJ (JONKOPING AIRPOR, SE) observed 0620 UTC 18 September 2021
Temperature: 9.0°C (48°F)
Dewpoint: 7.0°C (45°F) [RH = 87%]
Pressure (altimeter): 30.15 inches Hg (1021.0 mb)
Winds: from the NE (50 degrees) at 8 MPH (7 knots; 3.6 m/s)
Visibility: 6 or more miles (10+ km)
Ceiling: 4300 feet AGL
Clouds: few clouds at 1700 feet AGL
overcast cloud deck at 4300 feet AGL
Weather: no significant weather observed at this time